Time;durP1;ratioP1;P1;durP2;ratioP2;P2;SDS_P1;SDS_P2;PMS_P1;PMS_P2;Temp;Humidity;BMP_temperature;BMP_pressure;BME280_temperature;BME280_humidity;BME280_pressure;Samples;Min_cycle;Max_cycle;Signal;HPM_P1;HPM_P2
2021/10/12 00:01:11;;;;;;;10.13;2.28;;;;;;;7.82;91.98;101759.16;5058564;28;21379;-86
2021/10/12 00:03:36;;;;;;;5.95;1.52;;;;;;;7.94;91.04;101766.56;5053063;28;20025;-84
2021/10/12 00:06:02;;;;;;;12.02;1.25;;;;;;;7.93;92.04;101754.25;5054481;28;20025;-85
2021/10/12 00:08:28;;;;;;;7.25;1.75;;;;;;;7.86;91.29;101751.56;5072625;28;20060;-84
2021/10/12 00:10:53;;;;;;;8.38;2.10;;;;;;;7.77;91.55;101745.63;5055464;28;20473;-83
2021/10/12 00:13:19;;;;;;;5.50;1.27;;;;;;;7.75;91.40;101744.19;5054430;28;20094;-85
2021/10/12 00:15:45;;;;;;;10.55;1.50;;;;;;;7.65;91.54;101741.09;5054020;28;20470;-84
2021/10/12 00:18:11;;;;;;;5.18;1.42;;;;;;;7.70;90.99;101743.97;5055344;28;20032;-85
2021/10/12 00:20:37;;;;;;;10.68;2.03;;;;;;;7.61;91.53;101743.34;5066635;28;20055;-84
2021/10/12 00:23:06;;;;;;;7.75;2.30;;;;;;;7.53;91.79;101747.03;5055318;28;20024;-85
2021/10/12 00:25:32;;;;;;;11.63;3.03;;;;;;;7.57;91.49;101734.94;5049560;28;20039;-85
2021/10/12 00:27:57;;;;;;;7.50;1.63;;;;;;;7.51;91.77;101743.75;5070244;28;20110;-84
2021/10/12 00:30:23;;;;;;;6.43;1.38;;;;;;;7.44;91.74;101737.59;5055901;28;20075;-84
2021/10/12 00:32:49;;;;;;;5.60;2.17;;;;;;;7.39;92.01;101732.06;5054235;28;20028;-85
2021/10/12 00:35:15;;;;;;;4.30;1.25;;;;;;;7.40;92.11;101725.69;5052065;28;20078;-84
2021/10/12 00:37:41;;;;;;;1.73;1.20;;;;;;;7.39;92.10;101732.06;5056106;28;20089;-84
2021/10/12 00:40:07;;;;;;;6.28;1.55;;;;;;;7.34;92.39;101721.16;5056547;28;20481;-85
2021/10/12 00:42:35;;;;;;;6.63;1.88;;;;;;;7.39;91.70;101724.06;5052394;28;20096;-86
2021/10/12 00:45:03;;;;;;;3.58;1.48;;;;;;;7.28;92.63;101719.31;5052512;28;20169;-84
2021/10/12 00:47:28;;;;;;;8.20;1.88;;;;;;;7.31;92.68;101716.22;5048554;28;20033;-84
2021/10/12 00:49:56;;;;;;;8.00;1.50;;;;;;;7.28;92.34;101713.97;5053297;28;20020;-85
2021/10/12 00:52:22;;;;;;;7.90;1.55;;;;;;;7.30;92.53;101713.78;5054335;28;20043;-83
2021/10/12 00:54:47;;;;;;;6.40;1.35;;;;;;;7.28;92.84;101705.97;5054026;28;20111;-84
2021/10/12 00:57:14;;;;;;;4.80;1.55;;;;;;;7.29;92.38;101707.63;5046884;28;20422;-84
2021/10/12 00:59:40;;;;;;;7.20;1.50;;;;;;;7.26;92.55;101700.03;5056755;28;20026;-84
2021/10/12 01:02:06;;;;;;;6.25;1.70;;;;;;;7.23;92.85;101706.59;5061288;28;20028;-84
2021/10/12 01:04:32;;;;;;;9.35;1.88;;;;;;;7.32;92.40;101701.06;5055809;28;20066;-85
2021/10/12 01:06:58;;;;;;;6.68;1.48;;;;;;;7.28;91.80;101705.97;5054830;28;20032;-85
2021/10/12 01:09:23;;;;;;;3.65;1.30;;;;;;;7.29;92.03;101704.94;5054907;28;20123;-84
2021/10/12 01:11:49;;;;;;;5.25;2.05;;;;;;;7.21;92.65;101705.97;5052782;28;20674;-85
2021/10/12 01:14:14;;;;;;;6.57;1.25;;;;;;;7.24;92.49;101712.75;5051983;28;20491;-84
2021/10/12 01:16:40;;;;;;;8.70;1.77;;;;;;;7.23;92.40;101700.44;5052883;28;20036;-84
2021/10/12 01:19:07;;;;;;;8.88;2.15;;;;;;;7.16;93.03;101696.94;5054857;28;20089;-84
2021/10/12 01:21:40;;;;;;;10.00;1.95;;;;;;;7.09;93.53;101699.59;5076993;28;20034;-84
2021/10/12 01:24:06;;;;;;;7.45;1.38;;;;;;;7.06;93.28;101699.19;5073934;28;20107;-85
2021/10/12 01:26:33;;;;;;;5.30;1.77;;;;;;;7.06;93.81;101700.00;5069168;28;20033;-85
2021/10/12 01:28:59;;;;;;;10.98;1.95;;;;;;;7.06;93.59;101699.19;5068983;28;20078;-84
2021/10/12 01:31:26;;;;;;;8.52;1.60;;;;;;;6.94;94.45;101686.44;5052898;28;20036;-84
2021/10/12 01:33:53;;;;;;;6.95;1.83;;;;;;;6.97;94.60;101687.88;5052606;28;20387;-85
2021/10/12 01:36:20;;;;;;;14.77;3.05;;;;;;;6.95;94.82;101685.41;5047920;28;20110;-85
2021/10/12 01:38:46;;;;;;;6.95;1.90;;;;;;;6.99;94.66;101685.81;5045039;28;20047;-83
2021/10/12 01:41:13;;;;;;;7.97;1.77;;;;;;;6.95;94.71;101682.75;5052997;28;20969;-84
2021/10/12 01:43:39;;;;;;;10.32;2.30;;;;;;;7.00;94.57;101678.66;5055378;28;20355;-84
2021/10/12 01:46:06;;;;;;;5.65;1.50;;;;;;;6.89;94.75;101672.91;5068784;28;20064;-85
2021/10/12 01:48:32;;;;;;;9.20;2.28;;;;;;;6.95;94.62;101658.75;5051630;28;20043;-84
2021/10/12 01:50:58;;;;;;;9.82;2.33;;;;;;;6.92;94.70;101664.50;5055332;28;20124;-84
2021/10/12 01:53:24;;;;;;;12.45;2.40;;;;;;;6.99;94.33;101656.50;5067035;28;20029;-84
2021/10/12 01:55:50;;;;;;;11.80;1.88;;;;;;;6.96;94.20;101659.59;5052938;28;20666;-84
2021/10/12 01:58:16;;;;;;;6.57;1.50;;;;;;;6.95;94.46;101655.28;5047697;28;20020;-84
2021/10/12 02:00:42;;;;;;;5.97;1.52;;;;;;;6.99;93.97;101637.84;5053251;28;20028;-84
2021/10/12 02:03:07;;;;;;;17.70;2.70;;;;;;;7.09;93.75;101645.47;5053813;28;20086;-85
2021/10/12 02:05:33;;;;;;;4.63;1.75;;;;;;;7.12;93.27;101637.88;5051040;28;20037;-84
2021/10/12 02:07:58;;;;;;;6.00;1.27;;;;;;;7.08;93.42;101633.16;5050042;28;20025;-85
2021/10/12 02:10:24;;;;;;;10.27;1.80;;;;;;;7.04;93.94;101631.94;5053247;28;20028;-84
2021/10/12 02:12:50;;;;;;;7.55;1.60;;;;;;;6.96;94.20;101630.28;5051245;28;20042;-85
2021/10/12 02:15:16;;;;;;;8.07;1.70;;;;;;;6.97;93.87;101622.06;5049225;28;20020;-85
2021/10/12 02:17:41;;;;;;;8.75;2.15;;;;;;;6.94;94.19;101619.81;5052584;28;20121;-83
2021/10/12 02:20:08;;;;;;;6.07;1.52;;;;;;;7.00;94.46;101620.03;5062093;28;20024;-85
2021/10/12 02:22:34;;;;;;;5.68;1.50;;;;;;;6.92;94.99;101615.72;5067426;28;20040;-86
2021/10/12 02:25:00;;;;;;;10.50;1.42;;;;;;;6.86;94.92;101605.88;5052466;28;20137;-84
2021/10/12 02:27:28;;;;;;;10.85;2.22;;;;;;;6.91;94.93;101606.09;5054160;28;20071;-84
2021/10/12 02:29:54;;;;;;;7.70;1.73;;;;;;;6.92;94.93;101600.56;5038850;28;20037;-84
2021/10/12 02:32:19;;;;;;;11.68;2.30;;;;;;;6.95;94.32;101592.16;5058252;28;20028;-85
2021/10/12 02:34:45;;;;;;;9.30;1.60;;;;;;;6.88;94.83;101588.69;5055872;28;20020;-84
2021/10/12 02:37:11;;;;;;;8.02;1.70;;;;;;;6.87;94.73;101595.03;5058367;28;20082;-84
2021/10/12 02:39:36;;;;;;;8.07;1.63;;;;;;;6.87;95.21;101589.69;5060098;28;20024;-85
2021/10/12 02:42:02;;;;;;;7.70;2.00;;;;;;;6.81;95.22;101597.66;5061376;28;20032;-85
2021/10/12 02:44:28;;;;;;;6.32;1.52;;;;;;;6.86;95.56;101604.03;5055348;28;20085;-85
2021/10/12 02:46:54;;;;;;;6.45;1.75;;;;;;;6.88;95.10;101588.69;5059514;28;20032;-84
2021/10/12 02:49:19;;;;;;;16.10;2.03;;;;;;;6.86;94.74;101588.06;5053483;28;20040;-85
2021/10/12 02:51:45;;;;;;;6.65;1.73;;;;;;;6.74;95.62;101583.53;5067483;28;20025;-85
2021/10/12 02:54:11;;;;;;;8.73;1.27;;;;;;;6.77;95.88;101572.47;5053833;28;20025;-83
2021/10/12 02:56:39;;;;;;;11.80;1.77;;;;;;;6.73;96.00;101571.22;5055147;28;20060;-84
2021/10/12 02:59:05;;;;;;;11.82;1.75;;;;;;;6.73;95.96;101564.06;5074598;28;20053;-84
2021/10/12 03:01:31;;;;;;;5.78;2.00;;;;;;;6.77;95.09;101565.28;5061721;22;20045;-54
2021/10/12 03:03:56;;;;;;;3.53;1.60;;;;;;;6.59;95.81;101571.19;5043663;28;20024;-56
2021/10/12 03:06:22;;;;;;;5.00;1.70;;;;;;;6.63;95.64;101566.28;5040414;28;20533;-55
2021/10/12 03:08:47;;;;;;;8.50;1.50;;;;;;;6.60;95.91;101558.72;5043962;28;20082;-55
2021/10/12 03:11:13;;;;;;;7.22;1.35;;;;;;;6.53;95.20;101555.22;5042292;28;20029;-56
2021/10/12 03:13:38;;;;;;;7.10;1.63;;;;;;;6.48;94.66;101561.16;5061084;22;20413;-86
2021/10/12 03:16:04;;;;;;;9.80;2.10;;;;;;;6.47;94.40;101556.84;5065241;28;20021;-85
2021/10/12 03:18:31;;;;;;;13.48;2.38;;;;;;;6.27;95.09;101556.78;5065803;28;20525;-86
2021/10/12 03:20:57;;;;;;;8.27;1.88;;;;;;;6.29;95.52;101553.94;5065736;28;20571;-85
2021/10/12 03:23:23;;;;;;;5.80;1.92;;;;;;;6.26;95.41;101554.31;5064923;28;20024;-86
2021/10/12 03:25:49;;;;;;;9.15;2.13;;;;;;;6.34;94.88;101560.28;5063715;28;20027;-85
2021/10/12 03:28:14;;;;;;;6.43;1.73;;;;;;;6.28;95.17;101552.25;5066636;28;20108;-85
2021/10/12 03:30:40;;;;;;;8.20;2.15;;;;;;;6.27;95.08;101553.28;5063530;28;20036;-83
2021/10/12 03:33:06;;;;;;;7.03;2.30;;;;;;;6.27;95.65;101551.44;5064935;28;20094;-83
2021/10/12 03:35:34;;;;;;;11.70;2.38;;;;;;;6.22;97.07;101543.25;5066488;28;20107;-83
2021/10/12 03:38:00;;;;;;;7.38;2.03;;;;;;;6.31;96.37;101539.41;5064575;28;20521;-84
2021/10/12 03:40:26;;;;;;;9.40;2.15;;;;;;;6.37;96.34;101551.09;5065014;28;20036;-82
2021/10/12 03:42:52;;;;;;;10.23;2.50;;;;;;;6.43;95.96;101542.28;5064930;28;20099;-83
2021/10/12 03:45:17;;;;;;;2.35;1.63;;;;;;;6.45;95.59;101534.09;5066543;28;20444;-83
2021/10/12 03:47:43;;;;;;;9.73;2.15;;;;;;;6.54;95.70;101530.22;5067376;28;20086;-83
2021/10/12 03:50:09;;;;;;;5.70;2.10;;;;;;;6.55;95.97;101522.03;5066694;28;20094;-83
2021/10/12 03:52:34;;;;;;;8.38;1.88;;;;;;;6.60;95.68;101516.91;5064906;28;20072;-84
2021/10/12 03:55:00;;;;;;;8.57;2.30;;;;;;;6.59;95.79;101512.63;5058684;28;20601;-83
2021/10/12 03:57:25;;;;;;;8.82;2.30;;;;;;;6.55;97.04;101515.91;5066123;28;20056;-84
2021/10/12 03:59:51;;;;;;;8.88;2.22;;;;;;;6.61;97.10;101515.91;5063793;28;20043;-84
2021/10/12 04:02:16;;;;;;;10.32;2.88;;;;;;;6.64;98.20;101525.31;5068879;28;20520;-83
2021/10/12 04:04:42;;;;;;;9.88;2.58;;;;;;;6.72;97.80;101527.81;5062334;28;20078;-83
2021/10/12 04:07:07;;;;;;;9.13;2.50;;;;;;;6.76;98.20;101526.38;5060096;28;20023;-83
2021/10/12 04:09:33;;;;;;;7.07;2.70;;;;;;;6.85;97.88;101525.16;5061853;28;20111;-83
2021/10/12 04:11:58;;;;;;;13.48;2.95;;;;;;;6.88;98.08;101502.63;5064592;28;20097;-83
2021/10/12 04:14:24;;;;;;;7.10;3.00;;;;;;;6.98;97.42;101495.81;5064906;28;20024;-83
2021/10/12 04:16:50;;;;;;;6.93;2.60;;;;;;;7.07;96.97;101493.78;5063081;28;20052;-83
2021/10/12 04:19:15;;;;;;;10.30;2.80;;;;;;;7.08;96.60;101489.28;5064633;28;20024;-83
2021/10/12 04:21:41;;;;;;;6.20;2.50;;;;;;;7.14;96.16;101486.59;5067396;28;20033;-83
2021/10/12 04:24:07;;;;;;;5.10;2.53;;;;;;;7.16;96.08;101484.53;5063330;28;20068;-83
2021/10/12 04:26:32;;;;;;;7.85;2.60;;;;;;;7.17;96.01;101477.34;5059323;28;20100;-83
2021/10/12 04:28:58;;;;;;;6.13;2.42;;;;;;;7.22;95.48;101483.72;5062756;28;20020;-83
2021/10/12 04:31:23;;;;;;;10.80;2.80;;;;;;;7.23;95.12;101473.88;5060125;28;20032;-83
2021/10/12 04:33:49;;;;;;;8.00;3.05;;;;;;;7.28;95.24;101455.41;5056989;28;20601;-83
2021/10/12 04:36:15;;;;;;;9.80;3.00;;;;;;;7.37;94.73;101464.84;5059279;28;20102;-82
2021/10/12 04:38:40;;;;;;;11.82;2.83;;;;;;;7.35;95.34;101461.53;5062398;28;20308;-84
2021/10/12 04:41:08;;;;;;;9.10;2.60;;;;;;;7.35;96.22;101466.88;5054776;28;20073;-83
2021/10/12 04:43:35;;;;;;;8.82;2.67;;;;;;;7.27;98.13;101462.59;5058813;28;20505;-82
2021/10/12 04:46:00;;;;;;;12.98;3.22;;;;;;;7.34;97.81;101461.75;5065007;28;20060;-82
2021/10/12 04:48:26;;;;;;;5.95;2.28;;;;;;;7.33;98.55;101460.09;5068141;28;20125;-82
2021/10/12 04:50:54;;;;;;;15.05;3.45;;;;;;;7.36;98.90;101460.53;5059891;28;20085;-82
2021/10/12 04:53:21;;;;;;;7.72;3.00;;;;;;;7.32;99.20;101461.13;5058212;28;20125;-82
2021/10/12 04:55:46;;;;;;;9.30;3.28;;;;;;;7.30;99.53;101456.03;5054962;28;20112;-82
2021/10/12 04:58:12;;;;;;;8.27;3.08;;;;;;;7.23;100.00;101455.22;5056281;28;20029;-82
2021/10/12 05:00:38;;;;;;;9.00;2.97;;;;;;;7.17;100.00;101450.72;5058833;28;20498;-82
2021/10/12 05:03:04;;;;;;;13.32;3.20;;;;;;;7.09;100.00;101440.28;5056740;28;20024;-83
2021/10/12 05:05:30;;;;;;;6.55;2.90;;;;;;;6.97;100.00;101445.41;5060165;28;20070;-83
2021/10/12 05:07:56;;;;;;;11.40;3.20;;;;;;;6.96;100.00;101439.28;5055973;28;20444;-86
2021/10/12 05:10:25;;;;;;;7.53;2.92;;;;;;;6.97;100.00;101430.25;5063543;28;20024;-85
2021/10/12 05:12:50;;;;;;;11.95;4.03;;;;;;;7.00;100.00;101433.53;5064500;28;20692;-85
2021/10/12 05:15:22;;;;;;;9.38;2.85;;;;;;;7.02;100.00;101432.31;5060098;28;20028;-83
2021/10/12 05:17:48;;;;;;;13.48;3.67;;;;;;;6.96;100.00;101428.63;5052664;28;20443;-83
2021/10/12 05:20:14;;;;;;;11.45;3.10;;;;;;;6.96;100.00;101431.28;5057395;28;20029;-82
2021/10/12 05:22:44;;;;;;;8.43;3.10;;;;;;;6.96;100.00;101433.94;5060015;28;20829;-83
2021/10/12 05:25:09;;;;;;;8.30;2.58;;;;;;;6.97;100.00;101435.56;5057301;28;20056;-83
2021/10/12 05:27:36;;;;;;;11.38;2.40;;;;;;;7.00;100.00;101434.34;5072392;28;20154;-82
2021/10/12 05:30:07;;;;;;;7.28;2.25;;;;;;;6.92;100.00;101426.56;5055509;28;20043;-83
2021/10/12 05:32:34;;;;;;;6.88;2.15;;;;;;;6.91;100.00;101438.25;5058047;28;20064;-83
2021/10/12 05:35:00;;;;;;;5.85;2.15;;;;;;;6.94;100.00;101424.53;5068910;28;20085;-83
2021/10/12 05:37:26;;;;;;;6.28;2.22;;;;;;;6.84;100.00;101422.31;5055222;28;21514;-84
2021/10/12 05:39:53;;;;;;;6.47;2.30;;;;;;;6.80;100.00;101420.22;5056960;28;20107;-85
2021/10/12 05:42:18;;;;;;;7.63;2.20;;;;;;;6.74;100.00;101418.41;5054153;28;20024;-86
2021/10/12 05:44:44;;;;;;;7.90;2.13;;;;;;;6.75;100.00;101415.53;5055952;28;20504;-86
2021/10/12 05:47:09;;;;;;;4.00;2.00;;;;;;;6.73;100.00;101406.94;5057210;28;20079;-86
2021/10/12 05:49:37;;;;;;;5.70;2.03;;;;;;;6.74;100.00;101419.22;5054194;28;20039;-87
2021/10/12 05:52:04;;;;;;;6.25;1.48;;;;;;;6.72;100.00;101409.81;5054775;28;20509;-85
2021/10/12 05:54:32;;;;;;;5.03;1.60;;;;;;;6.73;100.00;101412.25;5080458;28;20028;-84
2021/10/12 05:57:05;;;;;;;6.95;1.92;;;;;;;6.65;100.00;101407.16;5065309;28;20032;-85
2021/10/12 05:59:31;;;;;;;2.80;1.15;;;;;;;6.67;100.00;101405.09;5064470;28;20027;-84
2021/10/12 06:01:57;;;;;;;4.95;1.30;;;;;;;6.66;100.00;101398.13;5062680;28;20021;-85
2021/10/12 06:04:22;;;;;;;3.47;1.30;;;;;;;6.62;100.00;101407.53;5060810;28;20436;-85
2021/10/12 06:06:48;;;;;;;3.13;2.45;;;;;;;6.60;100.00;101401.59;5065207;28;20064;-85
2021/10/12 06:09:13;;;;;;;4.22;1.60;;;;;;;6.59;100.00;101400.78;5063095;28;20060;-84
2021/10/12 06:11:39;;;;;;;2.88;1.30;;;;;;;6.62;100.00;101410.19;5064091;28;20150;-84
2021/10/12 06:14:04;;;;;;;1.75;1.25;;;;;;;6.50;100.00;101412.69;5067243;28;20404;-86
2021/10/12 06:16:30;;;;;;;6.65;1.75;;;;;;;6.56;100.00;101416.38;5065339;28;20157;-85
2021/10/12 06:18:55;;;;;;;3.10;1.25;;;;;;;6.73;100.00;101414.09;5064829;28;20036;-88
2021/10/12 06:21:21;;;;;;;3.97;1.30;;;;;;;6.71;100.00;101419.63;5058940;28;20040;-85
2021/10/12 06:23:47;;;;;;;4.65;1.20;;;;;;;6.86;100.00;101419.44;5057355;28;20024;-85
2021/10/12 06:26:12;;;;;;;3.60;1.23;;;;;;;6.98;100.00;101420.41;5057189;28;20036;-86
2021/10/12 06:28:38;;;;;;;2.25;1.10;;;;;;;7.06;97.84;101416.72;5059856;28;20551;-86
2021/10/12 06:31:06;;;;;;;1.92;1.20;;;;;;;7.17;96.49;101413.41;5059314;28;20077;-85
2021/10/12 06:33:32;;;;;;;3.53;0.90;;;;;;;7.19;96.71;101417.53;5078333;28;20074;-86
2021/10/12 06:35:57;;;;;;;2.60;1.23;;;;;;;7.22;95.67;101411.75;5060373;28;20962;-85
2021/10/12 06:38:23;;;;;;;3.00;0.90;;;;;;;7.28;95.52;101416.25;5053742;28;20040;-85
2021/10/12 06:40:48;;;;;;;2.28;0.85;;;;;;;7.31;94.75;101419.50;5049970;28;20517;-85
2021/10/12 06:43:14;;;;;;;2.90;1.02;;;;;;;7.37;94.50;101419.50;5057041;28;20028;-85
2021/10/12 06:45:39;;;;;;;7.20;1.95;;;;;;;7.36;94.25;101417.88;5061989;28;20082;-86
2021/10/12 06:48:06;;;;;;;3.67;1.20;;;;;;;7.48;94.83;101432.16;5059447;28;20052;-85
2021/10/12 06:50:31;;;;;;;3.83;1.17;;;;;;;7.46;93.79;101436.09;5054358;28;20028;-85
2021/10/12 06:52:57;;;;;;;2.22;1.05;;;;;;;7.38;93.28;101426.47;5072438;28;20028;-86
2021/10/12 06:55:23;;;;;;;1.48;1.13;;;;;;;7.37;93.91;101427.50;5060069;28;20039;-86
2021/10/12 06:57:48;;;;;;;3.88;1.20;;;;;;;7.36;94.15;101433.88;5055424;28;20060;-86
2021/10/12 07:00:16;;;;;;;2.20;1.10;;;;;;;7.37;94.22;101430.19;5056052;28;20033;-84
2021/10/12 07:02:43;;;;;;;5.72;1.20;;;;;;;7.44;94.54;101424.81;5054187;28;20034;-85
2021/10/12 07:05:10;;;;;;;1.88;0.88;;;;;;;7.55;93.58;101422.31;5062530;28;20510;-87
2021/10/12 07:07:36;;;;;;;4.03;1.63;;;;;;;7.63;93.16;101418.59;5050986;28;20044;-86
2021/10/12 07:10:03;;;;;;;3.25;1.35;;;;;;;7.71;93.52;101420.19;5057663;28;20537;-85
2021/10/12 07:12:28;;;;;;;3.40;0.98;;;;;;;7.68;92.54;101432.09;5058358;28;20032;-85
2021/10/12 07:14:54;;;;;;;1.88;1.00;;;;;;;7.69;92.68;101430.25;5064035;28;20024;-85
2021/10/12 07:17:19;;;;;;;2.88;1.30;;;;;;;7.74;93.32;101423.25;5061127;28;20191;-85
2021/10/12 07:19:45;;;;;;;3.75;1.42;;;;;;;7.76;92.14;101423.03;5062839;28;20127;-85
2021/10/12 07:22:11;;;;;;;2.70;1.40;;;;;;;7.72;92.69;101433.31;5059924;28;20391;-85
2021/10/12 07:24:36;;;;;;;4.57;1.40;;;;;;;7.87;91.70;101422.34;5062719;28;20107;-85
2021/10/12 07:27:02;;;;;;;1.30;1.10;;;;;;;7.79;90.90;101428.75;5062408;28;20079;-86
2021/10/12 07:29:27;;;;;;;2.20;1.00;;;;;;;7.89;90.86;101420.28;5060490;28;20114;-86
2021/10/12 07:31:53;;;;;;;1.33;1.15;;;;;;;7.95;90.14;101427.47;5062777;28;20493;-84
2021/10/12 07:34:18;;;;;;;3.67;0.85;;;;;;;7.94;88.44;101407.13;5058355;28;20347;-85
2021/10/12 07:36:44;;;;;;;2.42;1.20;;;;;;;7.96;88.51;101415.75;5059853;28;20025;-84
2021/10/12 07:39:10;;;;;;;3.65;1.02;;;;;;;7.94;88.49;101403.66;5064041;28;20116;-85
2021/10/12 07:41:36;;;;;;;4.85;1.10;;;;;;;8.05;87.98;101410.97;5061210;28;20031;-85
2021/10/12 07:44:03;;;;;;;4.90;1.27;;;;;;;8.20;88.13;101411.47;5056683;28;20100;-85
2021/10/12 07:46:29;;;;;;;1.75;0.85;;;;;;;8.23;87.20;101402.22;5054936;28;20040;-86
2021/10/12 07:48:58;;;;;;;2.97;1.00;;;;;;;8.09;87.86;101405.00;5061091;28;20205;-86
2021/10/12 07:51:24;;;;;;;2.50;1.00;;;;;;;8.28;87.26;101399.75;5059873;28;20095;-86
2021/10/12 07:53:51;;;;;;;4.75;1.10;;;;;;;8.36;87.60;101404.81;5062564;28;20021;-84
2021/10/12 07:56:27;;;;;;;3.55;1.00;;;;;;;8.48;86.79;101406.59;5057801;28;20032;-84
2021/10/12 07:58:53;;;;;;;2.97;1.13;;;;;;;8.50;86.85;101401.03;5064963;28;20028;-84
2021/10/12 08:01:18;;;;;;;0.75;0.75;;;;;;;8.48;86.20;101395.09;5064062;28;20479;-84
2021/10/12 08:03:45;;;;;;;2.33;0.82;;;;;;;8.70;86.55;101400.84;5061196;28;20461;-84
2021/10/12 08:06:11;;;;;;;2.10;1.30;;;;;;;8.58;86.28;101398.06;5076553;28;20036;-85
2021/10/12 08:08:36;;;;;;;2.72;1.27;;;;;;;8.55;85.96;101390.50;5058088;28;20024;-84
2021/10/12 08:11:04;;;;;;;1.63;1.02;;;;;;;8.61;86.31;101391.47;5059067;28;20102;-85
2021/10/12 08:13:30;;;;;;;2.40;1.00;;;;;;;8.67;86.81;101394.09;5063957;28;20043;-85
2021/10/12 08:16:01;;;;;;;3.03;1.10;;;;;;;8.70;86.80;101390.16;5062040;28;20036;-86
2021/10/12 08:18:27;;;;;;;1.48;1.25;;;;;;;8.68;86.15;101387.72;5058225;28;20205;-85
2021/10/12 08:20:52;;;;;;;5.95;1.63;;;;;;;8.69;87.15;101392.03;5060361;28;20118;-84
2021/10/12 08:23:18;;;;;;;4.40;1.55;;;;;;;8.81;86.99;101385.97;5059087;28;20020;-85
2021/10/12 08:25:43;;;;;;;2.75;1.27;;;;;;;8.97;85.91;101380.00;5063517;28;20202;-84
2021/10/12 08:28:09;;;;;;;3.42;1.50;;;;;;;9.11;85.68;101375.34;5057736;28;20020;-84
2021/10/12 08:30:34;;;;;;;1.60;1.20;;;;;;;8.96;86.53;101373.84;5060598;28;20025;-85
2021/10/12 08:33:00;;;;;;;1.80;1.48;;;;;;;8.96;87.08;101371.19;5064239;28;20032;-85
2021/10/12 08:35:26;;;;;;;2.97;1.27;;;;;;;9.03;87.23;101371.13;5060506;28;20275;-84
2021/10/12 08:37:51;;;;;;;3.47;1.30;;;;;;;8.93;87.32;101365.47;5061348;28;20020;-84
2021/10/12 08:40:17;;;;;;;2.60;1.23;;;;;;;8.87;87.67;101371.72;5059545;28;20028;-85
2021/10/12 08:42:48;;;;;;;4.80;1.48;;;;;;;8.83;86.87;101365.19;5058149;28;20058;-84
2021/10/12 08:45:15;;;;;;;3.25;1.08;;;;;;;8.93;85.61;101366.28;5050449;28;20112;-85
2021/10/12 08:47:42;;;;;;;3.63;1.00;;;;;;;8.99;84.73;101370.75;5056494;28;20561;-85
2021/10/12 08:50:10;;;;;;;2.03;0.90;;;;;;;9.06;85.15;101370.69;5057392;28;20024;-85
2021/10/12 08:52:35;;;;;;;2.65;1.33;;;;;;;9.06;84.06;101365.31;5062006;28;20119;-84
2021/10/12 08:55:01;;;;;;;1.50;1.05;;;;;;;9.38;82.81;101372.16;5058747;28;20123;-84
2021/10/12 08:57:30;;;;;;;3.22;1.02;;;;;;;9.50;81.95;101371.38;5061629;28;20417;-85
2021/10/12 08:59:59;;;;;;;2.83;1.02;;;;;;;9.59;82.74;101367.38;5062928;28;20399;-85
2021/10/12 09:02:26;;;;;;;3.15;1.10;;;;;;;9.76;82.01;101367.53;5062213;28;20032;-84
2021/10/12 09:04:52;;;;;;;2.00;0.90;;;;;;;9.67;80.15;101367.84;5060509;28;20036;-86
2021/10/12 09:07:29;;;;;;;3.47;1.00;;;;;;;9.76;80.38;101365.69;5061241;28;20513;-86
2021/10/12 09:09:56;;;;;;;1.50;0.85;;;;;;;9.82;80.12;101347.88;5056203;28;20110;-85
2021/10/12 09:12:45;;;;;;;2.78;0.82;;;;;;;9.58;79.90;101352.34;5057490;28;20034;-85
2021/10/12 09:15:12;;;;;;;4.22;0.90;;;;;;;9.79;79.86;101348.34;5056442;28;20021;-84
2021/10/12 09:17:46;;;;;;;6.82;1.33;;;;;;;9.77;80.28;101358.47;5059703;28;20035;-86
2021/10/12 09:20:14;;;;;;;2.17;0.70;;;;;;;9.93;78.75;101355.97;5055978;28;20031;-85
2021/10/12 09:23:00;;;;;;;2.47;0.80;;;;;;;9.77;78.20;101343.22;5063591;28;20134;-85
2021/10/12 09:25:37;;;;;;;2.38;0.80;;;;;;;9.63;78.45;101349.81;5057111;28;20032;-84
2021/10/12 09:28:04;;;;;;;0.90;0.40;;;;;;;9.77;77.59;101348.59;5054642;28;20021;-84
2021/10/12 09:30:32;;;;;;;1.80;0.73;;;;;;;9.87;76.75;101351.50;5058449;28;20042;-85
2021/10/12 09:33:06;;;;;;;1.42;0.57;;;;;;;10.03;75.90;101349.22;5063093;28;20119;-85
2021/10/12 09:35:32;;;;;;;2.73;1.17;;;;;;;10.10;76.53;101344.59;5063765;28;20481;-85
2021/10/12 09:38:10;;;;;;;4.90;0.90;;;;;;;10.13;75.86;101349.50;5063251;28;20269;-84
2021/10/12 09:40:38;;;;;;;1.77;0.90;;;;;;;10.26;76.09;101333.25;5055316;28;20091;-85
2021/10/12 09:43:05;;;;;;;3.83;0.60;;;;;;;10.27;75.53;101327.66;5066293;28;20044;-85
2021/10/12 09:45:48;;;;;;;1.95;0.63;;;;;;;10.10;76.19;101325.84;5063070;28;20068;-84
2021/10/12 09:48:33;;;;;;;2.78;0.60;;;;;;;10.15;76.69;101328.66;5055907;28;20094;-84
2021/10/12 09:51:06;;;;;;;;;;;;;;;9.91;76.25;101335.84;5062278;28;20034;-85
2021/10/12 09:53:32;;;;;;;1.08;0.50;;;;;;;10.06;74.92;101336.22;5065102;28;20293;-85
2021/10/12 09:55:59;;;;;;;2.10;0.50;;;;;;;10.00;74.58;101340.59;5065211;28;20024;-84
2021/10/12 09:58:29;;;;;;;1.05;0.52;;;;;;;9.99;74.26;101338.97;5061091;28;20610;-84
2021/10/12 10:00:56;;;;;;;3.67;0.50;;;;;;;9.77;73.85;101350.44;5050617;28;20043;-84
2021/10/12 10:03:22;;;;;;;1.92;0.43;;;;;;;9.87;73.43;101324.75;5064724;28;20163;-84
2021/10/12 10:05:48;;;;;;;4.30;0.85;;;;;;;10.13;71.63;101341.47;5075766;28;20021;-84
2021/10/12 10:08:14;;;;;;;1.90;0.70;;;;;;;10.38;70.54;101320.66;5057330;28;20025;-84
2021/10/12 10:10:40;;;;;;;0.90;0.50;;;;;;;10.55;69.73;101318.91;5061003;28;20111;-85
2021/10/12 10:13:06;;;;;;;2.67;0.50;;;;;;;10.82;69.46;101331.84;5059759;28;20028;-85
2021/10/12 10:15:34;;;;;;;0.95;0.40;;;;;;;10.99;67.69;101327.38;5065539;28;20544;-82
2021/10/12 10:17:59;;;;;;;1.05;0.50;;;;;;;10.95;67.09;101320.03;5061895;28;20029;-82
2021/10/12 10:20:25;;;;;;;2.10;0.40;;;;;;;10.86;66.35;101323.06;5057478;28;20082;-82
2021/10/12 10:22:54;;;;;;;2.45;0.40;;;;;;;11.20;66.97;101328.59;5062324;28;20031;-83
2021/10/12 10:25:34;;;;;;;1.15;0.50;;;;;;;11.43;65.92;101317.78;5070349;28;20032;-82
2021/10/12 10:28:18;;;;;;;1.27;0.60;;;;;;;11.88;64.05;101335.00;5060934;28;20023;-82
2021/10/12 10:30:49;;;;;;;1.83;0.32;;;;;;;12.08;63.32;101324.59;5063484;28;20498;-82
2021/10/12 10:33:40;;;;;;;3.15;0.50;;;;;;;11.79;63.54;101323.81;5056902;28;20588;-82
2021/10/12 10:36:10;;;;;;;1.20;0.43;;;;;;;11.75;63.71;101323.47;5061856;28;20037;-82
2021/10/12 10:38:45;;;;;;;3.33;0.70;;;;;;;11.85;63.74;101319.34;5064270;28;20035;-82
2021/10/12 10:41:11;;;;;;;1.13;0.60;;;;;;;11.89;62.88;101325.91;5057263;28;20177;-85
2021/10/12 10:43:49;;;;;;;1.50;0.45;;;;;;;12.01;62.31;101318.56;5062861;28;20107;-86
2021/10/12 10:46:35;;;;;;;1.83;0.40;;;;;;;11.94;62.51;101318.72;5064537;28;20577;-86
2021/10/12 10:49:07;;;;;;;4.05;0.75;;;;;;;11.75;62.83;101310.06;5072912;22;20166;-56
2021/10/12 10:51:50;;;;;;;0.65;0.40;;;;;;;11.86;63.46;101308.41;5044080;28;20375;-56
2021/10/12 10:54:37;;;;;;;2.10;0.70;;;;;;;12.06;63.08;101314.09;5040351;28;20029;-56
2021/10/12 10:57:20;;;;;;;3.03;0.40;;;;;;;12.60;61.59;101300.13;5042366;28;20025;-56
2021/10/12 11:00:11;;;;;;;1.02;0.40;;;;;;;12.78;61.18;101296.34;5040455;28;20063;-56
2021/10/12 11:02:45;;;;;;;0.80;0.40;;;;;;;12.44;61.73;101295.59;5040819;28;20100;-56
2021/10/12 11:05:31;;;;;;;1.70;0.70;;;;;;;12.09;62.15;101304.75;5040683;28;20188;-55
2021/10/12 11:08:18;;;;;;;2.22;0.52;;;;;;;11.63;63.65;101289.69;5041254;28;20116;-56
2021/10/12 11:10:47;;;;;;;3.35;0.65;;;;;;;12.05;62.60;101280.25;5038885;28;20398;-55
2021/10/12 11:13:32;;;;;;;1.85;0.60;;;;;;;12.53;59.67;101286.03;5041680;28;20033;-55
2021/10/12 11:15:59;;;;;;;;;;;;;;;12.55;60.40;101268.59;5042121;28;20516;-54
2021/10/12 11:18:24;;;;;;;1.25;0.30;;;;;;;12.37;59.58;101275.06;5041297;28;19919;-55
2021/10/12 11:20:53;;;;;;;2.28;0.60;;;;;;;12.47;59.35;101266.34;5040867;28;20029;-55
2021/10/12 11:23:33;;;;;;;1.23;0.50;;;;;;;13.13;58.55;101261.81;5038089;28;20486;-55
2021/10/12 11:26:06;;;;;;;4.00;1.58;;;;;;;13.24;57.73;101263.56;5036839;28;20048;-56
2021/10/12 11:28:35;;;;;;;1.10;0.40;;;;;;;13.33;56.75;101263.94;5037746;28;20462;-55
2021/10/12 11:31:10;;;;;;;1.92;0.50;;;;;;;12.49;56.86;101258.84;5041460;28;20067;-55
2021/10/12 11:33:40;;;;;;;1.27;0.40;;;;;;;12.56;55.80;101255.97;5041246;28;20116;-54